Centerpoint, Indiana
Current Conditions -  °F | °C
As of 3:15 PM on Thursday 30 Oct 2014 (Local Time) from K4I7 Reporting Station
Clear Clear  
Wind Chill: 52°   Ceiling: Unl
Heat Index: 52°   Visibility: 10mi
Dew Point: 36°   Wind: 3mph
Humidity: 54%   Direction: 190°S
Pressure: 30.08"   Gusts: NA
Location:  39.49°N, 86.95°W
Report Text: K4I7 301915Z AUTO 19003KT 10SM CLR 11/02 A3008 RMK AO2
Loading
Personal Weather Stations






























Interactive Weather Map
Tropical Storm Tracking
New forecast layout! Learn more

10-Day Weather Forecast

Advertisements
Track Severe Weather on mobile